createdAt,value
2023-03-02T00:02:05.435Z,5.24
2023-03-02T00:07:15.187Z,5.20
2023-03-02T00:12:18.690Z,5.27
2023-03-02T00:17:28.113Z,5.25
2023-03-02T00:22:31.149Z,5.03
2023-03-02T00:27:34.129Z,5.28
2023-03-02T00:32:38.735Z,5.13
2023-03-02T00:37:41.838Z,5.20
2023-03-02T00:42:45.746Z,5.03
2023-03-02T00:47:48.738Z,5.09
2023-03-02T00:52:51.713Z,5.28
2023-03-02T00:57:57.611Z,5.26
2023-03-02T01:03:05.080Z,5.50
2023-03-02T01:08:08.255Z,5.51
2023-03-02T01:13:11.614Z,5.57
2023-03-02T01:18:15.550Z,5.64
2023-03-02T01:23:18.839Z,5.68
2023-03-02T01:28:21.848Z,5.69
2023-03-02T01:33:26.100Z,5.64
2023-03-02T01:38:29.192Z,5.83
2023-03-02T01:43:32.814Z,5.88
2023-03-02T01:48:50.595Z,5.81
2023-03-02T01:54:10.550Z,5.77
2023-03-02T01:59:17.107Z,5.75
2023-03-02T02:04:22.035Z,5.62
2023-03-02T02:09:28.430Z,5.56
2023-03-02T02:14:32.310Z,5.61
2023-03-02T02:20:07.461Z,5.43
2023-03-02T02:25:30.178Z,5.34
2023-03-02T02:30:33.258Z,5.51
2023-03-02T02:35:38.780Z,5.55
2023-03-02T02:40:53.094Z,5.60
2023-03-02T02:46:02.194Z,5.63
2023-03-02T02:51:08.668Z,5.38
2023-03-02T02:56:13.449Z,5.48
2023-03-02T03:01:26.409Z,5.53
2023-03-02T03:06:43.361Z,5.56
2023-03-02T03:11:50.101Z,5.73
2023-03-02T03:16:55.201Z,5.69
2023-03-02T03:22:00.964Z,5.60
2023-03-02T03:27:09.133Z,5.75
2023-03-02T03:32:15.138Z,5.62
2023-03-02T03:37:20.023Z,5.56
2023-03-02T03:42:24.565Z,5.67
2023-03-02T03:47:29.258Z,5.68
2023-03-02T03:52:32.469Z,5.40
2023-03-02T03:57:45.969Z,5.29
2023-03-02T04:02:51.154Z,5.43
2023-03-02T04:07:55.010Z,5.41
2023-03-02T04:12:59.109Z,5.25
2023-03-02T04:18:03.808Z,5.32
2023-03-02T04:23:08.412Z,5.39
2023-03-02T04:28:11.980Z,5.29
2023-03-02T04:33:16.777Z,5.13
2023-03-02T04:38:20.150Z,5.11
2023-03-02T04:43:25.855Z,5.11
2023-03-02T04:48:30.553Z,5.28
2023-03-02T04:53:33.841Z,5.25
2023-03-02T04:58:37.276Z,5.19
2023-03-02T05:03:40.608Z,5.10
2023-03-02T05:08:44.602Z,5.02
2023-03-02T05:13:48.184Z,5.21
2023-03-02T05:18:51.837Z,5.01
2023-03-02T05:23:55.143Z,5.22
2023-03-02T05:28:58.412Z,5.38
2023-03-02T05:34:03.528Z,5.30
2023-03-02T05:39:07.979Z,5.45
2023-03-02T05:44:12.862Z,5.50
2023-03-02T05:49:15.845Z,5.50
2023-03-02T05:54:19.298Z,5.67
2023-03-02T05:59:22.883Z,5.62
2023-03-02T06:04:26.632Z,5.57
2023-03-02T06:09:30.005Z,5.64
2023-03-02T06:14:34.215Z,5.85
2023-03-02T06:19:37.166Z,5.82
2023-03-02T06:24:40.086Z,6.08
2023-03-02T06:29:43.073Z,6.29
2023-03-02T06:34:45.981Z,7.42
2023-03-02T06:39:49.030Z,10.25
2023-03-02T06:44:52.229Z,11.78
2023-03-02T06:49:55.310Z,12.49
2023-03-02T06:54:58.344Z,13.39
2023-03-02T07:00:10.356Z,13.42
2023-03-02T07:05:13.737Z,14.14
2023-03-02T07:10:16.748Z,15.16
2023-03-02T07:15:21.012Z,15.39
2023-03-02T07:20:24.390Z,13.95
2023-03-02T07:25:27.829Z,12.40
2023-03-02T07:30:31.694Z,15.79
2023-03-02T07:35:34.732Z,17.12
2023-03-02T07:40:43.864Z,15.45
2023-03-02T07:45:47.487Z,14.04
2023-03-02T07:50:50.547Z,12.45
2023-03-02T07:55:54.422Z,11.40
2023-03-02T08:00:57.535Z,14.24
2023-03-02T08:06:06.491Z,15.64
2023-03-02T08:11:13.530Z,12.80
2023-03-02T08:16:16.982Z,13.39
2023-03-02T08:21:23.821Z,12.94
2023-03-02T08:26:26.629Z,13.08
2023-03-02T08:31:30.632Z,12.59
2023-03-02T08:36:33.960Z,14.67
2023-03-02T08:41:37.281Z,15.66
2023-03-02T08:46:40.686Z,15.14
2023-03-02T08:51:44.245Z,15.57
2023-03-02T08:56:47.185Z,15.55
2023-03-02T09:01:50.253Z,15.86
2023-03-02T09:06:53.270Z,15.84
2023-03-02T09:11:56.277Z,16.04
2023-03-02T09:17:00.176Z,15.29
2023-03-02T09:22:03.562Z,15.83
2023-03-02T09:27:06.582Z,15.28
2023-03-02T09:32:09.768Z,14.78
2023-03-02T09:37:12.728Z,15.30
2023-03-02T09:42:41.821Z,15.66
2023-03-02T09:48:13.535Z,15.52
2023-03-02T09:53:28.777Z,15.30
2023-03-02T09:58:37.974Z,15.24
2023-03-02T10:04:09.976Z,14.62
2023-03-02T10:09:13.856Z,15.30
2023-03-02T10:14:27.458Z,14.95
2023-03-02T10:19:42.700Z,14.75
2023-03-02T10:24:57.381Z,15.01
2023-03-02T10:30:14.836Z,15.58
2023-03-02T10:35:24.287Z,15.58
2023-03-02T10:40:46.819Z,16.21
2023-03-02T10:46:04.004Z,16.56
2023-03-02T10:51:07.568Z,16.60
2023-03-02T10:56:25.358Z,17.20
2023-03-02T11:01:32.410Z,16.36
2023-03-02T11:06:36.218Z,17.07
2023-03-02T11:11:39.679Z,16.32
2023-03-02T11:16:44.137Z,15.99
2023-03-02T11:22:03.284Z,15.94
2023-03-02T11:27:14.636Z,15.64
2023-03-02T11:32:45.400Z,15.86
2023-03-02T11:37:55.099Z,15.46
2023-03-02T11:43:01.083Z,14.91
2023-03-02T11:48:09.363Z,14.88
2023-03-02T11:53:18.635Z,15.36
2023-03-02T11:58:25.721Z,15.70
2023-03-02T12:03:28.638Z,16.28
2023-03-02T12:08:34.879Z,15.38
2023-03-02T12:13:40.120Z,16.50
2023-03-02T12:18:51.987Z,15.61
2023-03-02T12:23:59.654Z,15.98
2023-03-02T12:29:13.880Z,16.79
2023-03-02T12:34:43.752Z,16.84
2023-03-02T12:40:11.303Z,16.91
2023-03-02T12:45:34.070Z,16.19
2023-03-02T12:50:38.666Z,17.62
2023-03-02T12:55:41.746Z,16.19
2023-03-02T13:00:58.201Z,17.36
2023-03-02T13:06:03.122Z,17.77
2023-03-02T13:11:06.659Z,14.69
2023-03-02T13:16:25.125Z,16.08
2023-03-02T13:21:34.319Z,16.80
2023-03-02T13:26:40.070Z,17.74
2023-03-02T13:31:43.174Z,18.87
2023-03-02T13:36:47.042Z,18.81
2023-03-02T13:42:01.451Z,17.97
2023-03-02T13:47:05.124Z,18.07
2023-03-02T13:52:28.433Z,16.79
2023-03-02T13:57:33.030Z,17.30
2023-03-02T14:02:36.033Z,15.51
2023-03-02T14:07:38.980Z,16.52
2023-03-02T14:12:48.713Z,17.20
2023-03-02T14:17:51.708Z,17.14
2023-03-02T14:22:55.206Z,17.61
2023-03-02T14:27:58.452Z,17.66
2023-03-02T14:33:01.866Z,17.55
2023-03-02T14:38:05.230Z,15.23
2023-03-02T14:43:10.823Z,15.67
2023-03-02T14:48:13.956Z,14.58
2023-03-02T14:53:21.175Z,12.87
2023-03-02T14:58:31.812Z,12.59
2023-03-02T15:03:34.776Z,12.64
2023-03-02T15:08:38.671Z,13.60
2023-03-02T15:13:41.616Z,13.92
2023-03-02T15:18:45.328Z,14.35
2023-03-02T15:23:48.482Z,12.58
2023-03-02T15:28:52.704Z,12.69
2023-03-02T15:33:56.662Z,13.37
2023-03-02T15:38:59.767Z,13.17
2023-03-02T15:44:02.818Z,12.99
2023-03-02T15:49:05.883Z,12.68
2023-03-02T15:54:11.102Z,12.55
2023-03-02T15:59:14.059Z,12.14
2023-03-02T16:04:18.374Z,11.43
2023-03-02T16:09:22.208Z,10.59
2023-03-02T16:14:25.402Z,10.57
2023-03-02T16:19:29.279Z,10.27
2023-03-02T16:24:32.265Z,10.11
2023-03-02T16:29:35.321Z,9.63
2023-03-02T16:34:38.672Z,9.25
2023-03-02T16:39:42.224Z,8.84
2023-03-02T16:44:46.147Z,8.69
2023-03-02T16:49:49.153Z,8.48
2023-03-02T16:54:52.128Z,8.11
2023-03-02T16:59:55.630Z,7.88
2023-03-02T17:04:58.713Z,7.67
2023-03-02T17:10:03.156Z,7.68
2023-03-02T17:15:07.235Z,7.64
2023-03-02T17:20:12.293Z,7.56
2023-03-02T17:25:18.322Z,7.44
2023-03-02T17:30:22.220Z,7.00
2023-03-02T17:35:25.331Z,7.02
2023-03-02T17:40:28.651Z,6.82
2023-03-02T17:45:32.014Z,6.82
2023-03-02T17:50:35.552Z,6.80
2023-03-02T17:55:39.329Z,6.76
2023-03-02T18:00:43.380Z,6.62
2023-03-02T18:05:47.494Z,6.57
2023-03-02T18:10:51.280Z,6.39
2023-03-02T18:15:54.701Z,6.52
2023-03-02T18:20:58.125Z,6.40
2023-03-02T18:26:01.556Z,6.32
2023-03-02T18:31:05.165Z,6.24
2023-03-02T18:36:09.107Z,6.16
2023-03-02T18:41:14.258Z,6.21
2023-03-02T18:46:24.727Z,6.18
2023-03-02T18:51:28.733Z,6.27
2023-03-02T18:56:32.268Z,6.30
2023-03-02T19:01:36.283Z,6.15
2023-03-02T19:06:40.489Z,6.03
2023-03-02T19:11:43.649Z,5.74
2023-03-02T19:16:47.391Z,5.58
2023-03-02T19:21:51.153Z,5.49
2023-03-02T19:26:55.176Z,5.53
2023-03-02T19:31:59.259Z,5.30
2023-03-02T19:37:02.982Z,5.33
2023-03-02T19:42:06.697Z,5.09
2023-03-02T19:47:09.781Z,4.90
2023-03-02T19:52:13.334Z,5.08
2023-03-02T19:57:17.048Z,4.92
2023-03-02T20:02:20.621Z,4.65
2023-03-02T20:07:23.603Z,4.97
2023-03-02T20:12:27.241Z,4.71
2023-03-02T20:17:30.439Z,4.74
2023-03-02T20:22:33.879Z,4.59
2023-03-02T20:27:36.899Z,4.35
2023-03-02T20:32:40.558Z,4.20
2023-03-02T20:37:44.729Z,4.15
2023-03-02T20:42:48.190Z,3.98
2023-03-02T20:47:51.183Z,3.96
2023-03-02T20:52:54.262Z,3.84
2023-03-02T20:57:58.401Z,3.62
2023-03-02T21:03:01.419Z,3.57
2023-03-02T21:08:05.118Z,3.35
2023-03-02T21:13:10.832Z,3.23
2023-03-02T21:18:13.980Z,3.01
2023-03-02T21:23:18.226Z,2.88
2023-03-02T21:28:22.117Z,2.82
2023-03-02T21:33:25.760Z,2.65
2023-03-02T21:38:29.711Z,2.56
2023-03-02T21:43:33.708Z,2.37
2023-03-02T21:48:37.567Z,2.33
2023-03-02T21:53:42.270Z,2.31
2023-03-02T21:58:47.629Z,2.20
2023-03-02T22:03:51.886Z,2.20
2023-03-02T22:08:57.780Z,2.13
2023-03-02T22:14:16.192Z,2.13
2023-03-02T22:19:27.363Z,2.10
2023-03-02T22:24:33.917Z,2.09
2023-03-02T22:29:43.746Z,2.12
2023-03-02T22:34:54.996Z,2.04
2023-03-02T22:40:02.813Z,1.97
2023-03-02T22:45:22.064Z,1.94
2023-03-02T22:50:28.816Z,1.90
2023-03-02T22:55:38.969Z,1.85
2023-03-02T23:00:42.521Z,1.77
2023-03-02T23:05:51.409Z,1.82
2023-03-02T23:11:00.989Z,1.91
2023-03-02T23:16:16.329Z,2.04
2023-03-02T23:21:28.477Z,1.95
2023-03-02T23:26:32.840Z,2.10
2023-03-02T23:31:36.412Z,2.07
2023-03-02T23:36:41.320Z,2.16
2023-03-02T23:41:45.644Z,2.03
2023-03-02T23:46:49.900Z,2.07
2023-03-02T23:51:53.391Z,2.04
2023-03-02T23:56:57.167Z,1.97
